Time;durP1;ratioP1;P1;durP2;ratioP2;P2;SDS_P1;SDS_P2;PMS_P1;PMS_P2;Temp;Humidity;BMP_temperature;BMP_pressure;BME280_temperature;BME280_humidity;BME280_pressure;Samples;Min_cycle;Max_cycle;Signal;HPM_P1;HPM_P2
2021/07/19 00:01:23;;;;;;;8.10;3.55;;;;;;;;;;5071227;28;20496;-65
2021/07/19 00:03:48;;;;;;;7.40;3.10;;;;;;;;;;5061361;28;20072;-67
2021/07/19 00:06:14;;;;;;;9.70;3.23;;;;;;;;;;5063120;28;20267;-65
2021/07/19 00:08:39;;;;;;;5.15;3.00;;;;;;;;;;5053176;28;20676;-65
2021/07/19 00:11:05;;;;;;;10.30;3.27;;;;;;;;;;5065084;28;20031;-65
2021/07/19 00:13:30;;;;;;;7.55;3.95;;;;;;;;;;5058731;28;20383;-67
2021/07/19 00:15:56;;;;;;;6.80;3.65;;;;;;;;;;5070133;28;20161;-66
2021/07/19 00:18:21;;;;;;;14.48;3.40;;;;;;;;;;5079775;28;20051;-65
2021/07/19 00:20:47;;;;;;;9.68;3.85;;;;;;;;;;5056115;28;20032;-66
2021/07/19 00:23:12;;;;;;;8.20;3.80;;;;;;;;;;5061985;28;20033;-65
2021/07/19 00:25:37;;;;;;;4.83;3.07;;;;;;;;;;5067268;28;20035;-66
2021/07/19 00:28:03;;;;;;;10.57;3.95;;;;;;;;;;5067927;28;20271;-66
2021/07/19 00:30:28;;;;;;;7.85;3.60;;;;;;;;;;5050892;28;20070;-66
2021/07/19 00:32:53;;;;;;;9.85;4.00;;;;;;;;;;5068472;28;20115;-65
2021/07/19 00:35:19;;;;;;;8.15;4.00;;;;;;;;;;5063340;28;20444;-66
2021/07/19 00:37:44;;;;;;;9.07;3.83;;;;;;;;;;5065794;28;20108;-65
2021/07/19 00:40:11;;;;;;;10.93;3.95;;;;;;;;;;5069753;28;20035;-65
2021/07/19 00:42:38;;;;;;;8.63;3.95;;;;;;;;;;5058050;28;20026;-65
2021/07/19 00:45:08;;;;;;;16.42;4.18;;;;;;;;;;5062071;28;20012;-65
2021/07/19 00:47:33;;;;;;;10.20;4.25;;;;;;;;;;5070628;28;20016;-65
2021/07/19 00:49:58;;;;;;;9.88;4.20;;;;;;;;;;5057888;28;20431;-65
2021/07/19 00:52:23;;;;;;;14.68;4.85;;;;;;;;;;5066789;28;20547;-66
2021/07/19 00:54:49;;;;;;;15.43;3.95;;;;;;;;;;5050664;28;20036;-65
2021/07/19 00:57:14;;;;;;;10.73;4.65;;;;;;;;;;5066948;28;20107;-66
2021/07/19 00:59:39;;;;;;;6.15;3.42;;;;;;;;;;5069368;28;20232;-65
2021/07/19 01:02:05;;;;;;;10.63;4.57;;;;;;;;;;5067461;28;20526;-65
2021/07/19 01:04:31;;;;;;;7.93;4.00;;;;;;;;;;5053930;28;20404;-65
2021/07/19 01:06:58;;;;;;;5.47;3.72;;;;;;;;;;5050530;28;20021;-66
2021/07/19 01:09:25;;;;;;;8.80;3.97;;;;;;;;;;5061607;28;20350;-65
2021/07/19 01:11:50;;;;;;;10.00;4.07;;;;;;;;;;5056001;28;20086;-65
2021/07/19 01:14:16;;;;;;;7.93;4.10;;;;;;;;;;5066120;28;20029;-66
2021/07/19 01:16:41;;;;;;;7.90;4.37;;;;;;;;;;5050360;28;20135;-65
2021/07/19 01:19:07;;;;;;;13.48;4.53;;;;;;;;;;5062322;28;20259;-65
2021/07/19 01:21:52;;;;;;;9.30;3.78;;;;;;;;;;5050664;28;20110;-65
2021/07/19 01:24:27;;;;;;;10.82;4.30;;;;;;;;;;5038374;28;20040;-65
2021/07/19 01:27:07;;;;;;;11.45;3.90;;;;;;;;;;5070421;28;20093;-65
2021/07/19 01:29:34;;;;;;;10.32;4.05;;;;;;;;;;5062270;28;20020;-65
2021/07/19 01:32:01;;;;;;;9.30;5.18;;;;;;;;;;5055166;28;20531;-65
2021/07/19 01:34:28;;;;;;;8.23;4.68;;;;;;;;;;5057079;28;20028;-65
2021/07/19 01:36:54;;;;;;;9.88;4.28;;;;;;;;;;5050088;28;20025;-65
2021/07/19 01:39:20;;;;;;;8.13;4.68;;;;;;;;;;5059901;28;20035;-65
2021/07/19 01:41:47;;;;;;;8.15;3.97;;;;;;;;;;5058005;28;20032;-65
2021/07/19 01:44:13;;;;;;;7.95;4.50;;;;;;;;;;5051058;28;20037;-66
2021/07/19 01:46:39;;;;;;;10.80;4.88;;;;;;;;;;5050426;28;20488;-66
2021/07/19 01:49:06;;;;;;;11.25;4.43;;;;;;;;;;5057753;28;20029;-65
2021/07/19 01:51:31;;;;;;;12.93;4.75;;;;;;;;;;5054780;28;20469;-65
2021/07/19 01:53:57;;;;;;;7.55;4.22;;;;;;;;;;5062036;28;20097;-65
2021/07/19 01:56:24;;;;;;;7.82;4.60;;;;;;;;;;5073768;28;20031;-65
2021/07/19 01:58:49;;;;;;;15.30;4.85;;;;;;;;;;5060241;28;20116;-66
2021/07/19 02:01:15;;;;;;;19.73;5.32;;;;;;;;;;5060464;28;20104;-66
2021/07/19 02:03:40;;;;;;;9.35;5.63;;;;;;;;;;5037403;28;20384;-65
2021/07/19 02:06:07;;;;;;;11.88;4.50;;;;;;;;;;5053705;28;20024;-65
2021/07/19 02:08:33;;;;;;;17.00;4.32;;;;;;;;;;5060761;28;20048;-65
2021/07/19 02:10:58;;;;;;;8.48;4.75;;;;;;;;;;5070786;28;20020;-65
2021/07/19 02:13:25;;;;;;;16.47;4.93;;;;;;;;;;5059432;28;20031;-65
2021/07/19 02:15:51;;;;;;;7.22;4.53;;;;;;;;;;5066292;28;20626;-65
2021/07/19 02:18:18;;;;;;;9.02;4.68;;;;;;;;;;5069535;28;20461;-65
2021/07/19 02:20:43;;;;;;;8.05;4.53;;;;;;;;;;5071108;28;20519;-65
2021/07/19 02:23:09;;;;;;;14.30;4.25;;;;;;;;;;5069148;28;20024;-66
2021/07/19 02:25:34;;;;;;;9.50;4.65;;;;;;;;;;5066994;28;20411;-65
2021/07/19 02:28:00;;;;;;;8.65;5.05;;;;;;;;;;5065413;28;20078;-66
2021/07/19 02:30:26;;;;;;;8.18;4.82;;;;;;;;;;5059824;28;20036;-65
2021/07/19 02:32:53;;;;;;;15.05;5.20;;;;;;;;;;5071047;28;20036;-65
2021/07/19 02:35:19;;;;;;;12.93;4.70;;;;;;;;;;5070608;28;20488;-65
2021/07/19 02:37:46;;;;;;;14.32;5.60;;;;;;;;;;5056332;28;20033;-65
2021/07/19 02:40:13;;;;;;;11.00;5.13;;;;;;;;;;5069278;28;20028;-65
2021/07/19 02:42:42;;;;;;;13.55;4.60;;;;;;;;;;5072162;28;20024;-65
2021/07/19 02:45:16;;;;;;;13.63;5.93;;;;;;;;;;5070497;28;20031;-66
2021/07/19 02:47:43;;;;;;;8.63;5.15;;;;;;;;;;5072592;28;20343;-65
2021/07/19 02:50:08;;;;;;;7.47;4.78;;;;;;;;;;5052496;28;20024;-66
2021/07/19 02:52:34;;;;;;;11.32;5.50;;;;;;;;;;5052819;28;20469;-65
2021/07/19 02:55:00;;;;;;;13.73;5.15;;;;;;;;;;5058462;28;20500;-65
2021/07/19 02:57:25;;;;;;;9.98;5.15;;;;;;;;;;5063644;28;20435;-65
2021/07/19 02:59:51;;;;;;;14.65;5.80;;;;;;;;;;5064141;28;20028;-65
2021/07/19 03:02:18;;;;;;;14.18;6.05;;;;;;;;;;5070647;28;20404;-65
2021/07/19 03:04:43;;;;;;;13.52;6.25;;;;;;;;;;5059469;28;20028;-65
2021/07/19 03:07:09;;;;;;;12.75;5.65;;;;;;;;;;5055413;28;20420;-65
2021/07/19 03:09:39;;;;;;;8.85;5.38;;;;;;;;;;5060502;28;20021;-65
2021/07/19 03:12:05;;;;;;;12.68;5.90;;;;;;;;;;5052398;28;20037;-65
2021/07/19 03:14:32;;;;;;;14.65;6.22;;;;;;;;;;5054902;28;20037;-65
2021/07/19 03:16:58;;;;;;;12.90;5.88;;;;;;;;;;5072337;28;20020;-65
2021/07/19 03:19:23;;;;;;;10.35;5.70;;;;;;;;;;5064268;28;20043;-65
2021/07/19 03:21:51;;;;;;;12.25;6.30;;;;;;;;;;5064902;28;20024;-65
2021/07/19 03:24:16;;;;;;;15.80;6.07;;;;;;;;;;5063477;28;20477;-65
2021/07/19 03:26:42;;;;;;;14.93;6.22;;;;;;;;;;5052194;28;20096;-65
2021/07/19 03:29:08;;;;;;;18.30;5.55;;;;;;;;;;5055100;28;20016;-65
2021/07/19 03:31:33;;;;;;;25.67;6.65;;;;;;;;;;5069899;28;20025;-65
2021/07/19 03:33:59;;;;;;;14.05;6.38;;;;;;;;;;5058619;28;20029;-66
2021/07/19 03:36:25;;;;;;;14.98;6.10;;;;;;;;;;5053236;28;20426;-65
2021/07/19 03:38:51;;;;;;;10.13;5.28;;;;;;;;;;5052042;28;20025;-65
2021/07/19 03:41:16;;;;;;;12.88;5.22;;;;;;;;;;5062274;28;20492;-65
2021/07/19 03:43:43;;;;;;;9.43;5.10;;;;;;;;;;5053941;28;20032;-66
2021/07/19 03:46:08;;;;;;;13.50;5.47;;;;;;;;;;5071710;28;20423;-65
2021/07/19 03:48:34;;;;;;;12.35;5.10;;;;;;;;;;5056720;28;20100;-65
2021/07/19 03:51:00;;;;;;;11.23;5.80;;;;;;;;;;5064321;28;20110;-65
2021/07/19 03:53:25;;;;;;;11.80;5.30;;;;;;;;;;5055556;28;20060;-65
2021/07/19 03:55:51;;;;;;;10.27;5.55;;;;;;;;;;5063265;28;20052;-65
2021/07/19 03:58:16;;;;;;;18.20;7.07;;;;;;;;;;5063150;28;20028;-65
2021/07/19 04:00:42;;;;;;;12.13;6.72;;;;;;;;;;5062858;28;20039;-66
2021/07/19 04:03:21;;;;;;;13.80;6.20;;;;;;;;;;5069249;28;20427;-65
2021/07/19 04:05:49;;;;;;;10.73;6.18;;;;;;;;;;5070537;28;20016;-65
2021/07/19 04:08:15;;;;;;;11.63;6.47;;;;;;;;;;5065151;28;20015;-65
2021/07/19 04:10:41;;;;;;;14.80;7.05;;;;;;;;;;5065075;28;20463;-65
2021/07/19 04:13:07;;;;;;;10.93;6.15;;;;;;;;;;5051305;28;20039;-65
2021/07/19 04:15:35;;;;;;;11.25;6.10;;;;;;;;;;5067972;28;20032;-65
2021/07/19 04:18:00;;;;;;;12.40;6.70;;;;;;;;;;5037089;28;20465;-65
2021/07/19 04:20:25;;;;;;;10.18;6.75;;;;;;;;;;5065969;28;20032;-65
2021/07/19 04:22:51;;;;;;;9.18;6.35;;;;;;;;;;5051422;28;20033;-65
2021/07/19 04:25:17;;;;;;;11.85;6.68;;;;;;;;;;5052056;28;20079;-65
2021/07/19 04:27:42;;;;;;;17.40;7.33;;;;;;;;;;5051765;28;20020;-65
2021/07/19 04:30:08;;;;;;;18.27;7.38;;;;;;;;;;5058436;28;20782;-65
2021/07/19 04:32:33;;;;;;;10.45;6.72;;;;;;;;;;5061989;28;20035;-65
2021/07/19 04:34:59;;;;;;;11.52;6.88;;;;;;;;;;5055900;28;20025;-65
2021/07/19 04:37:24;;;;;;;11.75;6.88;;;;;;;;;;5051761;28;20025;-65
2021/07/19 04:39:51;;;;;;;18.75;7.13;;;;;;;;;;5055397;28;20050;-65
2021/07/19 04:42:16;;;;;;;13.40;6.72;;;;;;;;;;5059046;28;20021;-65
2021/07/19 04:44:41;;;;;;;20.98;6.88;;;;;;;;;;5053265;28;20031;-65
2021/07/19 04:47:07;;;;;;;14.60;6.80;;;;;;;;;;5064198;28;20032;-65
2021/07/19 04:49:32;;;;;;;15.18;7.20;;;;;;;;;;5068577;28;20739;-65
2021/07/19 04:51:58;;;;;;;13.82;7.55;;;;;;;;;;5057690;28;20036;-65
2021/07/19 04:54:25;;;;;;;22.50;8.27;;;;;;;;;;5062804;28;20024;-65
2021/07/19 04:56:52;;;;;;;16.15;7.20;;;;;;;;;;5070324;28;20024;-65
2021/07/19 04:59:19;;;;;;;16.17;7.32;;;;;;;;;;5049959;28;20020;-65
2021/07/19 05:01:45;;;;;;;20.52;8.07;;;;;;;;;;5063617;28;20428;-66
2021/07/19 05:04:12;;;;;;;14.77;8.55;;;;;;;;;;5066574;28;20029;-65
2021/07/19 05:06:38;;;;;;;17.33;8.85;;;;;;;;;;5054424;28;20452;-65
2021/07/19 05:09:04;;;;;;;21.58;8.75;;;;;;;;;;5054380;28;20020;-65
2021/07/19 05:11:30;;;;;;;23.55;10.23;;;;;;;;;;5055024;28;20120;-65
2021/07/19 05:13:56;;;;;;;20.15;9.88;;;;;;;;;;5059556;28;20021;-65
2021/07/19 05:16:22;;;;;;;25.70;9.68;;;;;;;;;;5055756;28;20075;-65
2021/07/19 05:18:47;;;;;;;23.90;9.90;;;;;;;;;;5051191;28;20072;-65
2021/07/19 05:21:12;;;;;;;17.05;9.98;;;;;;;;;;5051046;28;20047;-65
2021/07/19 05:23:38;;;;;;;19.23;11.02;;;;;;;;;;5036300;28;20501;-65
2021/07/19 05:26:03;;;;;;;21.92;9.80;;;;;;;;;;5061015;28;20524;-65
2021/07/19 05:28:28;;;;;;;23.73;11.05;;;;;;;;;;5062013;28;20158;-65
2021/07/19 05:30:54;;;;;;;23.67;11.53;;;;;;;;;;5069300;28;20024;-66
2021/07/19 05:33:20;;;;;;;24.77;11.82;;;;;;;;;;5061823;28;20624;-65
2021/07/19 05:35:46;;;;;;;23.30;12.68;;;;;;;;;;5064282;28;20047;-66
2021/07/19 05:38:11;;;;;;;17.88;10.85;;;;;;;;;;5071004;28;20020;-65
2021/07/19 05:40:37;;;;;;;22.58;11.30;;;;;;;;;;5073333;28;20024;-65
2021/07/19 05:43:02;;;;;;;22.52;12.27;;;;;;;;;;5069481;28;20115;-65
2021/07/19 05:45:27;;;;;;;25.30;12.50;;;;;;;;;;5071615;28;20028;-66
2021/07/19 05:47:53;;;;;;;22.70;12.27;;;;;;;;;;5073636;28;20105;-66
2021/07/19 05:50:19;;;;;;;25.55;12.38;;;;;;;;;;5070277;28;20054;-65
2021/07/19 05:52:44;;;;;;;19.85;12.45;;;;;;;;;;5066214;28;20013;-66
2021/07/19 05:55:10;;;;;;;24.73;11.47;;;;;;;;;;5065905;28;20032;-65
2021/07/19 05:57:35;;;;;;;22.23;12.02;;;;;;;;;;5067582;28;20263;-65
2021/07/19 06:00:01;;;;;;;18.50;11.80;;;;;;;;;;5059877;28;20025;-65
2021/07/19 06:02:27;;;;;;;20.20;11.25;;;;;;;;;;5063249;28;20024;-65
2021/07/19 06:04:52;;;;;;;23.02;11.45;;;;;;;;;;5059010;28;20017;-66
2021/07/19 06:07:18;;;;;;;19.52;11.40;;;;;;;;;;5054347;28;20028;-65
2021/07/19 06:09:43;;;;;;;19.40;11.15;;;;;;;;;;5054979;28;20230;-66
2021/07/19 06:12:08;;;;;;;21.37;11.13;;;;;;;;;;5060242;28;20579;-65
2021/07/19 06:14:33;;;;;;;21.70;10.95;;;;;;;;;;5058499;28;20275;-65
2021/07/19 06:16:59;;;;;;;26.17;12.03;;;;;;;;;;5058803;28;20413;-65
2021/07/19 06:19:24;;;;;;;17.90;10.93;;;;;;;;;;5070945;28;20362;-65
2021/07/19 06:21:49;;;;;;;16.57;10.00;;;;;;;;;;5064333;28;20374;-65
2021/07/19 06:24:14;;;;;;;18.00;9.77;;;;;;;;;;5067066;28;20295;-65
2021/07/19 06:26:39;;;;;;;18.05;10.35;;;;;;;;;;5062463;28;20027;-65
2021/07/19 06:29:05;;;;;;;16.57;9.83;;;;;;;;;;5067824;28;20028;-65
2021/07/19 06:31:31;;;;;;;19.35;9.43;;;;;;;;;;5061746;28;20352;-66
2021/07/19 06:33:56;;;;;;;23.85;10.10;;;;;;;;;;5073170;28;20024;-65
2021/07/19 06:36:21;;;;;;;18.33;8.95;;;;;;;;;;5068955;28;20033;-65
2021/07/19 06:38:46;;;;;;;20.70;11.90;;;;;;;;;;5052612;28;20021;-65
2021/07/19 06:41:12;;;;;;;14.10;8.93;;;;;;;;;;5061104;28;20798;-65
2021/07/19 06:43:38;;;;;;;21.48;8.65;;;;;;;;;;5059764;28;20279;-65
2021/07/19 06:46:03;;;;;;;16.63;8.90;;;;;;;;;;5058802;28;20020;-65
2021/07/19 06:48:29;;;;;;;21.93;9.50;;;;;;;;;;5054396;28;20488;-65
2021/07/19 06:50:54;;;;;;;16.50;8.50;;;;;;;;;;5070444;28;20266;-65
2021/07/19 06:53:19;;;;;;;15.20;8.88;;;;;;;;;;5069418;28;20697;-65
2021/07/19 06:55:44;;;;;;;14.87;8.50;;;;;;;;;;5071916;28;20032;-65
2021/07/19 06:58:09;;;;;;;16.27;8.63;;;;;;;;;;5066124;28;20078;-65
2021/07/19 07:00:35;;;;;;;15.57;8.37;;;;;;;;;;5055619;28;20266;-65
2021/07/19 07:03:00;;;;;;;20.30;10.95;;;;;;;;;;5062537;28;20763;-65
2021/07/19 07:05:25;;;;;;;15.93;7.95;;;;;;;;;;5063069;28;20378;-66
2021/07/19 07:07:50;;;;;;;14.57;7.43;;;;;;;;;;5057837;28;20025;-65
2021/07/19 07:10:15;;;;;;;15.93;7.70;;;;;;;;;;5072056;28;20266;-66
2021/07/19 07:12:42;;;;;;;16.27;8.47;;;;;;;;;;5060980;28;20033;-65
2021/07/19 07:15:08;;;;;;;18.70;8.48;;;;;;;;;;5066398;28;20353;-66
2021/07/19 07:17:33;;;;;;;18.67;8.30;;;;;;;;;;5059946;28;20021;-66
2021/07/19 07:19:59;;;;;;;11.38;7.68;;;;;;;;;;5066140;28;20504;-65
2021/07/19 07:22:25;;;;;;;17.75;7.85;;;;;;;;;;5071448;28;20469;-66
2021/07/19 07:24:50;;;;;;;14.07;8.23;;;;;;;;;;5065870;28;20013;-66
2021/07/19 07:27:18;;;;;;;13.10;7.93;;;;;;;;;;5067408;28;20020;-65
2021/07/19 07:29:43;;;;;;;16.38;8.07;;;;;;;;;;5066716;28;20067;-65
2021/07/19 07:32:08;;;;;;;15.77;8.67;;;;;;;;;;5051341;28;20466;-65
2021/07/19 07:34:33;;;;;;;22.53;8.67;;;;;;;;;;5052851;28;20329;-66
2021/07/19 07:36:58;;;;;;;17.77;7.97;;;;;;;;;;5051607;28;20267;-66
2021/07/19 07:39:24;;;;;;;14.48;7.82;;;;;;;;;;5068986;28;20349;-66
2021/07/19 07:41:49;;;;;;;13.85;7.97;;;;;;;;;;5065918;28;20028;-66
2021/07/19 07:44:14;;;;;;;16.40;8.55;;;;;;;;;;5051946;28;20246;-65
2021/07/19 07:46:41;;;;;;;19.77;9.00;;;;;;;;;;5066801;28;20627;-65
2021/07/19 07:49:06;;;;;;;16.13;8.65;;;;;;;;;;5065258;28;20650;-66
2021/07/19 07:51:32;;;;;;;13.85;8.57;;;;;;;;;;5068712;28;20016;-66
2021/07/19 07:53:58;;;;;;;33.23;9.07;;;;;;;;;;5052008;28;20032;-65
2021/07/19 07:56:24;;;;;;;17.88;8.80;;;;;;;;;;5058566;28;20299;-65
2021/07/19 07:58:49;;;;;;;16.43;8.57;;;;;;;;;;5061417;28;20474;-65
2021/07/19 08:01:14;;;;;;;16.77;8.13;;;;;;;;;;5054930;28;20309;-65
2021/07/19 08:03:39;;;;;;;14.10;8.80;;;;;;;;;;5051535;28;20286;-65
2021/07/19 08:06:04;;;;;;;14.33;8.50;;;;;;;;;;5058250;28;20635;-66
2021/07/19 08:08:29;;;;;;;18.48;7.90;;;;;;;;;;5070285;28;20281;-65
2021/07/19 08:10:55;;;;;;;16.63;8.10;;;;;;;;;;5066377;28;20385;-65
2021/07/19 08:13:20;;;;;;;14.90;8.50;;;;;;;;;;5053182;28;20759;-65
2021/07/19 08:15:47;;;;;;;19.13;9.53;;;;;;;;;;5050997;28;20516;-66
2021/07/19 08:18:12;;;;;;;16.02;9.27;;;;;;;;;;5054623;28;20337;-66
2021/07/19 08:20:38;;;;;;;16.05;9.45;;;;;;;;;;5056202;28;20465;-65
2021/07/19 08:23:03;;;;;;;22.15;10.40;;;;;;;;;;5065017;28;20033;-65
2021/07/19 08:25:28;;;;;;;16.92;9.38;;;;;;;;;;5051983;28;20017;-65
2021/07/19 08:27:55;;;;;;;18.50;10.00;;;;;;;;;;5050784;28;20021;-66
2021/07/19 08:30:20;;;;;;;29.33;11.10;;;;;;;;;;5055791;28;20028;-65
2021/07/19 08:32:46;;;;;;;18.03;10.53;;;;;;;;;;5062869;28;20024;-66
2021/07/19 08:35:11;;;;;;;16.90;9.68;;;;;;;;;;5058772;28;20266;-66
2021/07/19 08:37:40;;;;;;;18.10;9.73;;;;;;;;;;5062752;28;20024;-65
2021/07/19 08:40:08;;;;;;;20.50;11.38;;;;;;;;;;5059871;28;20024;-66
2021/07/19 08:42:34;;;;;;;21.98;11.30;;;;;;;;;;5058704;28;20040;-66
2021/07/19 08:45:00;;;;;;;30.63;11.25;;;;;;;;;;5056276;28;20059;-66
2021/07/19 08:47:25;;;;;;;21.60;11.32;;;;;;;;;;5063654;28;20052;-66
2021/07/19 08:49:50;;;;;;;19.30;11.57;;;;;;;;;;5090711;28;20371;-66
2021/07/19 08:52:16;;;;;;;26.07;11.87;;;;;;;;;;5065887;28;20740;-66
2021/07/19 08:54:47;;;;;;;21.63;10.80;;;;;;;;;;5050935;28;20726;-65
2021/07/19 08:57:12;;;;;;;20.55;11.68;;;;;;;;;;5065991;28;20031;-66
2021/07/19 08:59:38;;;;;;;18.92;11.32;;;;;;;;;;5064252;28;20021;-65
2021/07/19 09:02:04;;;;;;;19.33;10.88;;;;;;;;;;5056601;28;20109;-65
2021/07/19 09:04:30;;;;;;;20.70;11.05;;;;;;;;;;5069651;28;20024;-65
2021/07/19 09:06:55;;;;;;;34.88;11.82;;;;;;;;;;5069000;28;20020;-66
2021/07/19 09:09:27;;;;;;;23.65;11.27;;;;;;;;;;5059495;28;20021;-66
2021/07/19 09:11:52;;;;;;;21.73;11.30;;;;;;;;;;5070336;28;20112;-65
2021/07/19 09:14:17;;;;;;;20.67;11.53;;;;;;;;;;5068968;28;20447;-65
2021/07/19 09:16:44;;;;;;;18.67;11.27;;;;;;;;;;5065184;28;20275;-65
2021/07/19 09:19:10;;;;;;;20.13;11.82;;;;;;;;;;5057190;28;20031;-66
2021/07/19 09:21:38;;;;;;;17.58;10.38;;;;;;;;;;5050436;28;20029;-65
2021/07/19 09:24:11;;;;;;;18.40;11.20;;;;;;;;;;5056665;28;20532;-67
2021/07/19 09:26:36;;;;;;;19.80;11.63;;;;;;;;;;5070273;28;20219;-65
2021/07/19 09:29:03;;;;;;;18.98;11.00;;;;;;;;;;5060396;28;20697;-65
2021/07/19 09:31:32;;;;;;;20.95;11.15;;;;;;;;;;5064942;28;20484;-66
2021/07/19 09:33:58;;;;;;;25.45;11.63;;;;;;;;;;5065041;28;20097;-68
2021/07/19 09:36:24;;;;;;;23.80;12.63;;;;;;;;;;5069958;28;20060;-67
2021/07/19 09:39:02;;;;;;;22.50;12.07;;;;;;;;;;5057308;28;20314;-65
2021/07/19 09:41:27;;;;;;;18.92;11.63;;;;;;;;;;5049887;28;20033;-66
2021/07/19 09:43:53;;;;;;;25.47;11.93;;;;;;;;;;5064392;28;20021;-66
2021/07/19 09:46:18;;;;;;;22.77;11.68;;;;;;;;;;5066789;28;20377;-65
2021/07/19 09:48:43;;;;;;;20.77;12.83;;;;;;;;;;5056059;28;20037;-65
2021/07/19 09:51:08;;;;;;;23.93;13.53;;;;;;;;;;5056310;28;20098;-65
2021/07/19 09:53:36;;;;;;;22.17;12.88;;;;;;;;;;5061147;28;20742;-66
2021/07/19 09:56:31;;;;;;;23.35;12.18;;;;;;;;;;5066442;28;20025;-65
2021/07/19 09:59:05;;;;;;;22.60;12.88;;;;;;;;;;5042889;28;20041;-65
2021/07/19 10:01:33;;;;;;;23.58;12.68;;;;;;;;;;5060959;28;20517;-66
2021/07/19 10:04:02;;;;;;;22.15;13.48;;;;;;;;;;5059563;28;20060;-67
2021/07/19 10:06:30;;;;;;;22.50;13.23;;;;;;;;;;5052793;28;20059;-67
2021/07/19 10:08:56;;;;;;;25.77;13.27;;;;;;;;;;5071685;28;20020;-66
2021/07/19 10:11:21;;;;;;;29.23;14.38;;;;;;;;;;5075296;28;20035;-67
2021/07/19 10:13:48;;;;;;;23.50;13.88;;;;;;;;;;5062698;28;20107;-66
2021/07/19 10:16:13;;;;;;;27.42;15.52;;;;;;;;;;5064737;28;20107;-66
2021/07/19 10:18:39;;;;;;;28.90;15.37;;;;;;;;;;5071247;28;20544;-67
2021/07/19 10:21:06;;;;;;;25.05;14.73;;;;;;;;;;5070841;28;20273;-66
2021/07/19 10:23:31;;;;;;;29.95;15.25;;;;;;;;;;5068473;28;20025;-67
2021/07/19 10:25:57;;;;;;;28.15;15.27;;;;;;;;;;5059581;28;20027;-66
2021/07/19 10:28:22;;;;;;;25.60;15.02;;;;;;;;;;5071947;28;20451;-65
2021/07/19 10:30:47;;;;;;;28.63;16.43;;;;;;;;;;5073363;28;20017;-66
2021/07/19 10:33:12;;;;;;;28.80;16.53;;;;;;;;;;5064914;28;20273;-67
2021/07/19 10:35:38;;;;;;;25.88;16.38;;;;;;;;;;5073252;28;20720;-67
2021/07/19 10:38:18;;;;;;;30.70;17.00;;;;;;;;;;5070682;28;20036;-67
2021/07/19 10:40:43;;;;;;;29.55;16.65;;;;;;;;;;5070773;28;20031;-67
2021/07/19 10:43:13;;;;;;;32.72;19.05;;;;;;;;;;5063352;28;20016;-66
2021/07/19 10:45:39;;;;;;;27.63;17.05;;;;;;;;;;5065713;28;20028;-67
2021/07/19 10:48:05;;;;;;;27.77;17.40;;;;;;;;;;5062718;28;20214;-67
2021/07/19 10:50:36;;;;;;;31.70;18.35;;;;;;;;;;5055800;28;20872;-67
2021/07/19 10:53:01;;;;;;;28.13;17.88;;;;;;;;;;5062219;28;20109;-66
2021/07/19 10:55:33;;;;;;;30.80;19.75;;;;;;;;;;5066483;28;20130;-66
2021/07/19 10:58:03;;;;;;;29.70;17.65;;;;;;;;;;5054633;28;20043;-67
2021/07/19 11:00:29;;;;;;;27.88;15.40;;;;;;;;;;5071094;28;20401;-66
2021/07/19 11:03:04;;;;;;;29.73;15.82;;;;;;;;;;5053598;28;20029;-67
2021/07/19 11:05:36;;;;;;;23.58;15.45;;;;;;;;;;5053664;28;20493;-66
2021/07/19 11:08:02;;;;;;;27.67;16.88;;;;;;;;;;5052287;28;20147;-67
2021/07/19 11:10:27;;;;;;;26.45;15.48;;;;;;;;;;5055615;28;20464;-66
2021/07/19 11:12:54;;;;;;;27.90;16.27;;;;;;;;;;5063183;28;20451;-67
2021/07/19 11:15:21;;;;;;;32.65;17.35;;;;;;;;;;5070945;28;20012;-67
2021/07/19 11:17:47;;;;;;;25.30;13.65;;;;;;;;;;5069143;28;20434;-67
2021/07/19 11:20:14;;;;;;;22.52;13.85;;;;;;;;;;5062024;28;20103;-65
2021/07/19 11:22:40;;;;;;;24.60;14.40;;;;;;;;;;5063563;28;20062;-67
2021/07/19 11:25:13;;;;;;;25.13;14.18;;;;;;;;;;5068913;28;20465;-67
2021/07/19 11:27:40;;;;;;;21.42;12.70;;;;;;;;;;5053157;28;20079;-65
2021/07/19 11:30:05;;;;;;;22.67;13.57;;;;;;;;;;5062308;28;20542;-67
2021/07/19 11:32:31;;;;;;;24.08;12.63;;;;;;;;;;5071174;28;20044;-67
2021/07/19 11:35:07;;;;;;;24.10;12.82;;;;;;;;;;5059674;28;20029;-67
2021/07/19 11:37:33;;;;;;;24.15;13.93;;;;;;;;;;5071922;28;20020;-67
2021/07/19 11:40:00;;;;;;;24.23;12.75;;;;;;;;;;5054890;28;20039;-67
2021/07/19 11:42:29;;;;;;;22.98;12.88;;;;;;;;;;5066404;28;20052;-67
2021/07/19 11:45:07;;;;;;;27.77;13.13;;;;;;;;;;5066627;28;20008;-67
2021/07/19 11:47:33;;;;;;;22.35;12.52;;;;;;;;;;5069324;28;20501;-66
2021/07/19 11:50:02;;;;;;;24.10;12.35;;;;;;;;;;5073927;28;20464;-66
2021/07/19 11:52:28;;;;;;;20.33;12.67;;;;;;;;;;5058528;28;20029;-67
2021/07/19 11:54:53;;;;;;;23.80;13.18;;;;;;;;;;5052601;28;20104;-67
2021/07/19 11:57:18;;;;;;;25.70;13.60;;;;;;;;;;5055718;28;20039;-67
2021/07/19 11:59:44;;;;;;;22.83;13.43;;;;;;;;;;5051732;28;20036;-67
2021/07/19 12:02:09;;;;;;;22.20;13.02;;;;;;;;;;5059762;28;20032;-66
2021/07/19 12:04:35;;;;;;;23.95;13.43;;;;;;;;;;5054080;28;20017;-67
2021/07/19 12:07:01;;;;;;;23.00;13.85;;;;;;;;;;5069516;28;20020;-67
2021/07/19 12:09:26;;;;;;;24.90;14.35;;;;;;;;;;5055012;28;20484;-67
2021/07/19 12:11:54;;;;;;;22.53;13.70;;;;;;;;;;5071445;28;20025;-66
2021/07/19 12:14:20;;;;;;;25.35;14.82;;;;;;;;;;5053808;28;20270;-67
2021/07/19 12:16:45;;;;;;;28.15;14.00;;;;;;;;;;5057207;28;20104;-67
2021/07/19 12:19:14;;;;;;;21.95;13.48;;;;;;;;;;5058412;28;20033;-66
2021/07/19 12:21:41;;;;;;;23.13;13.95;;;;;;;;;;5052336;28;20377;-67
2021/07/19 12:24:10;;;;;;;20.40;12.77;;;;;;;;;;5053456;28;20025;-67
2021/07/19 12:26:36;;;;;;;19.13;13.05;;;;;;;;;;5052420;28;20021;-66
2021/07/19 12:29:06;;;;;;;20.48;12.65;;;;;;;;;;5060051;28;20020;-67
2021/07/19 12:31:37;;;;;;;21.63;12.90;;;;;;;;;;5049033;28;20460;-67
2021/07/19 12:34:06;;;;;;;21.75;13.35;;;;;;;;;;5059494;28;20036;-67
2021/07/19 12:36:32;;;;;;;21.70;13.00;;;;;;;;;;5052029;28;20519;-66
2021/07/19 12:38:57;;;;;;;25.25;14.38;;;;;;;;;;5062111;28;20041;-66
2021/07/19 12:41:22;;;;;;;22.77;12.63;;;;;;;;;;5053731;28;20374;-66
2021/07/19 12:43:48;;;;;;;25.05;14.95;;;;;;;;;;5065537;28;20474;-66
2021/07/19 12:46:13;;;;;;;27.55;15.70;;;;;;;;;;5059151;28;20130;-68
2021/07/19 12:48:43;;;;;;;25.75;15.27;;;;;;;;;;5051460;28;20049;-67
2021/07/19 12:51:10;;;;;;;26.60;14.85;;;;;;;;;;5056885;28;20081;-67
2021/07/19 12:53:35;;;;;;;25.33;14.05;;;;;;;;;;5060370;28;20120;-66
2021/07/19 12:56:11;;;;;;;24.50;15.20;;;;;;;;;;5055316;28;20121;-66
2021/07/19 12:58:36;;;;;;;20.38;13.15;;;;;;;;;;5062702;28;20488;-66
2021/07/19 13:01:11;;;;;;;26.67;13.50;;;;;;;;;;5060893;28;20055;-67
2021/07/19 13:03:37;;;;;;;21.60;13.02;;;;;;;;;;5068851;28;20024;-67
2021/07/19 13:06:02;;;;;;;26.75;13.77;;;;;;;;;;5066569;28;20025;-66
2021/07/19 13:08:31;;;;;;;24.52;13.23;;;;;;;;;;5052356;28;20017;-66
2021/07/19 13:11:07;;;;;;;24.25;14.15;;;;;;;;;;5066618;28;20029;-67
2021/07/19 13:13:32;;;;;;;24.00;13.95;;;;;;;;;;5059455;28;20024;-67
2021/07/19 13:15:58;;;;;;;25.92;13.32;;;;;;;;;;5064060;28;20585;-67
2021/07/19 13:18:23;;;;;;;23.48;14.27;;;;;;;;;;5055273;28;20099;-67
2021/07/19 13:20:58;;;;;;;21.70;13.23;;;;;;;;;;5068485;28;20134;-66
2021/07/19 13:23:23;;;;;;;22.27;13.48;;;;;;;;;;5063583;28;20025;-66
2021/07/19 13:25:49;;;;;;;22.90;14.10;;;;;;;;;;5052820;28;20021;-66
2021/07/19 13:28:14;;;;;;;23.63;13.13;;;;;;;;;;5061690;28;20271;-66
2021/07/19 13:30:40;;;;;;;23.23;14.35;;;;;;;;;;5060781;28;20024;-66
2021/07/19 13:33:06;;;;;;;22.98;15.20;;;;;;;;;;5059952;28;20028;-67
2021/07/19 13:35:42;;;;;;;26.02;14.77;;;;;;;;;;5070358;28;20424;-66
2021/07/19 13:38:08;;;;;;;24.45;14.98;;;;;;;;;;5063368;28;20103;-67
2021/07/19 13:40:41;;;;;;;23.20;15.98;;;;;;;;;;5065667;28;20075;-67
2021/07/19 13:43:11;;;;;;;25.92;15.15;;;;;;;;;;5063260;28;20083;-66
2021/07/19 13:45:36;;;;;;;28.67;15.18;;;;;;;;;;5059228;28;20488;-66
2021/07/19 13:48:01;;;;;;;25.87;14.93;;;;;;;;;;5061325;28;20021;-66
2021/07/19 13:50:26;;;;;;;28.30;14.87;;;;;;;;;;5056518;28;20369;-67
2021/07/19 13:52:51;;;;;;;25.57;15.27;;;;;;;;;;5066005;28;20627;-67
2021/07/19 13:55:17;;;;;;;25.57;14.47;;;;;;;;;;5073307;28;20024;-67
2021/07/19 13:57:43;;;;;;;25.63;15.88;;;;;;;;;;5059372;28;20274;-66
2021/07/19 14:00:08;;;;;;;22.60;14.20;;;;;;;;;;5068279;28;20053;-66
2021/07/19 14:02:34;;;;;;;27.60;15.68;;;;;;;;;;5067096;28;20029;-66
2021/07/19 14:04:59;;;;;;;32.08;14.60;;;;;;;;;;5053617;28;20084;-66
2021/07/19 14:07:24;;;;;;;20.20;13.53;;;;;;;;;;5071156;28;20081;-66
2021/07/19 14:09:49;;;;;;;26.80;14.85;;;;;;;;;;5058353;28;20385;-67
2021/07/19 14:12:15;;;;;;;27.88;14.70;;;;;;;;;;5066591;28;20052;-67
2021/07/19 14:14:40;;;;;;;20.75;13.68;;;;;;;;;;5062593;28;20024;-66
2021/07/19 14:17:06;;;;;;;23.88;14.10;;;;;;;;;;5068505;28;20019;-67
2021/07/19 14:19:32;;;;;;;30.50;15.07;;;;;;;;;;5059100;28;20098;-67
2021/07/19 14:21:57;;;;;;;20.85;13.15;;;;;;;;;;5072889;28;20012;-65